Time;durP1;ratioP1;P1;durP2;ratioP2;P2;SDS_P1;SDS_P2;PMS_P1;PMS_P2;Temp;Humidity;BMP_temperature;BMP_pressure;BME280_temperature;BME280_humidity;BME280_pressure;Samples;Min_cycle;Max_cycle;Signal;HPM_P1;HPM_P2
2023/12/09 00:04:32;;;;;;;;;;;;;;;20.76;32.36;95421.63;10506052;28;2640;-44
2023/12/09 00:09:32;;;;;;;;;;;;;;;20.73;32.33;95427.44;10502377;28;2630;-46
2023/12/09 00:14:32;;;;;;;;;;;;;;;20.65;32.88;95428.06;10509108;28;2605;-49
2023/12/09 00:19:32;;;;;;;;;;;;;;;20.61;32.66;95427.06;10503822;28;2538;-46
2023/12/09 00:24:33;;;;;;;;;;;;;;;20.57;32.66;95428.69;10504358;28;2665;-45
2023/12/09 00:29:33;;;;;;;;;;;;;;;20.55;32.26;95436.09;10502910;27;2668;-44
2023/12/09 00:34:33;;;;;;;;;;;;;;;20.54;32.66;95439.81;10497825;28;2677;-47
2023/12/09 00:39:34;;;;;;;;;;;;;;;20.61;33.28;95445.50;10506024;28;2531;-47
2023/12/09 00:44:34;;;;;;;;;;;;;;;20.58;32.99;95437.38;10498554;28;4742;-51
2023/12/09 00:49:34;;;;;;;;;;;;;;;20.57;32.50;95444.50;10499329;28;2666;-53
2023/12/09 00:54:34;;;;;;;;;;;;;;;20.59;32.17;95437.09;10508167;28;2749;-52
2023/12/09 00:59:35;;;;;;;;;;;;;;;20.46;32.45;95443.06;10508058;28;2710;-50
2023/12/09 01:04:35;;;;;;;;;;;;;;;20.40;32.52;95436.28;10509123;28;2815;-50
2023/12/09 01:09:35;;;;;;;;;;;;;;;20.37;32.54;95447.34;10511225;28;2826;-49
2023/12/09 01:14:35;;;;;;;;;;;;;;;20.33;32.55;95446.34;10507178;28;3310;-48
2023/12/09 01:19:36;;;;;;;;;;;;;;;20.30;32.36;95446.13;10501170;28;2800;-49
2023/12/09 01:24:36;;;;;;;;;;;;;;;20.26;32.35;95461.66;10519432;28;2889;-50
2023/12/09 01:29:36;;;;;;;;;;;;;;;20.21;32.31;95451.19;10511686;28;2800;-49
2023/12/09 01:34:39;;;;;;;;;;;;;;;20.19;32.02;95462.00;10498541;28;2870;-50
2023/12/09 01:39:40;;;;;;;;;;;;;;;20.17;32.04;95461.44;10501550;28;2849;-50
2023/12/09 01:44:40;;;;;;;;;;;;;;;20.13;32.58;95459.66;10507434;28;2807;-49
2023/12/09 01:49:40;;;;;;;;;;;;;;;20.12;32.28;95460.72;10502501;28;2885;-52
2023/12/09 01:54:41;;;;;;;;;;;;;;;20.09;32.02;95461.28;10504010;28;2771;-52
2023/12/09 01:59:41;;;;;;;;;;;;;;;20.06;31.99;95469.72;10503988;28;2872;-52
2023/12/09 02:04:41;;;;;;;;;;;;;;;20.03;32.29;95470.28;10504145;28;2765;-49
2023/12/09 02:09:42;;;;;;;;;;;;;;;20.01;32.41;95472.41;10510719;28;2860;-50
2023/12/09 02:14:46;;;;;;;;;;;;;;;19.99;32.34;95466.63;10506841;28;2881;-51
2023/12/09 02:19:46;;;;;;;;;;;;;;;19.96;32.33;95475.06;10507524;28;2871;-52
2023/12/09 02:24:47;;;;;;;;;;;;;;;19.93;32.39;95483.50;10502154;28;2802;-51
2023/12/09 02:29:53;;;;;;;;;;;;;;;19.91;32.38;95491.69;10509455;28;2856;-48
2023/12/09 02:34:54;;;;;;;;;;;;;;;19.90;32.49;95486.69;10501555;28;2924;-48
2023/12/09 02:39:54;;;;;;;;;;;;;;;19.88;32.40;95491.44;10512203;28;2882;-48
2023/12/09 02:44:57;;;;;;;;;;;;;;;19.85;32.12;95492.78;10508192;28;4577;-48
2023/12/09 02:49:57;;;;;;;;;;;;;;;19.83;32.45;95487.00;10499329;28;2825;-51
2023/12/09 02:54:57;;;;;;;;;;;;;;;19.81;32.59;95489.13;10502194;28;2815;-49
2023/12/09 02:59:58;;;;;;;;;;;;;;;19.79;32.27;95500.97;10510067;28;2808;-53
2023/12/09 03:04:58;;;;;;;;;;;;;;;19.78;32.57;95499.41;10504931;28;2796;-50
2023/12/09 03:09:58;;;;;;;;;;;;;;;19.75;32.61;95507.84;10506840;28;2853;-51
2023/12/09 03:14:58;;;;;;;;;;;;;;;19.74;32.44;95508.91;10505867;28;2917;-51
2023/12/09 03:19:59;;;;;;;;;;;;;;;19.71;32.49;95512.06;10498631;28;2896;-47
2023/12/09 03:24:59;;;;;;;;;;;;;;;19.71;32.35;95519.97;10502247;28;2868;-52
2023/12/09 03:29:59;;;;;;;;;;;;;;;19.68;32.66;95526.56;10501761;28;2844;-53
2023/12/09 03:35:00;;;;;;;;;;;;;;;19.66;32.35;95520.78;10501896;28;3136;-51
2023/12/09 03:40:00;;;;;;;;;;;;;;;19.63;32.40;95521.34;10501290;28;3220;-50
2023/12/09 03:45:00;;;;;;;;;;;;;;;19.61;32.87;95531.34;10508265;28;4640;-51
2023/12/09 03:50:01;;;;;;;;;;;;;;;19.61;32.43;95520.81;10504350;28;2845;-52
2023/12/09 03:55:01;;;;;;;;;;;;;;;19.59;32.48;95527.41;10503823;28;2867;-49
2023/12/09 04:00:04;;;;;;;;;;;;;;;19.58;32.19;95517.97;10505291;28;3182;-50
2023/12/09 04:05:05;;;;;;;;;;;;;;;19.55;32.67;95515.88;10509958;28;2793;-49
2023/12/09 04:10:06;;;;;;;;;;;;;;;19.54;32.40;95509.06;10511773;28;2929;-50
2023/12/09 04:15:07;;;;;;;;;;;;;;;19.49;32.52;95492.22;10500068;28;2777;-51
2023/12/09 04:20:08;;;;;;;;;;;;;;;19.49;32.33;95489.59;10508159;28;2806;-50
2023/12/09 04:25:09;;;;;;;;;;;;;;;19.47;32.49;95489.06;10499586;28;2896;-47
2023/12/09 04:30:09;;;;;;;;;;;;;;;19.45;32.53;95485.94;10500682;28;2805;-53
2023/12/09 04:35:12;;;;;;;;;;;;;;;19.44;32.34;95484.38;10506358;28;2808;-52
2023/12/09 04:40:12;;;;;;;;;;;;;;;19.42;32.37;95483.88;10497631;28;2814;-50
2023/12/09 04:45:12;;;;;;;;;;;;;;;19.40;32.27;95472.84;10498825;28;4466;-49
2023/12/09 04:50:12;;;;;;;;;;;;;;;19.39;32.18;95471.25;10503970;28;2855;-50
2023/12/09 04:55:13;;;;;;;;;;;;;;;19.36;32.56;95466.56;10499791;28;2839;-50
2023/12/09 05:00:13;;;;;;;;;;;;;;;19.35;32.36;95478.13;10495603;28;2776;-50
2023/12/09 05:05:14;;;;;;;;;;;;;;;19.33;32.44;95489.94;10497738;28;2882;-52
2023/12/09 05:10:14;;;;;;;;;;;;;;;19.35;32.80;95495.75;10501121;28;2885;-50
2023/12/09 05:15:14;;;;;;;;;;;;;;;19.38;32.79;95485.47;10507275;28;2805;-53
2023/12/09 05:20:14;;;;;;;;;;;;;;;19.42;32.73;95481.25;10497511;28;2924;-50
2023/12/09 05:25:15;;;;;;;;;;;;;;;19.50;32.64;95493.00;10496867;28;3016;-52
2023/12/09 05:30:16;;;;;;;;;;;;;;;19.56;32.32;95488.53;10504048;28;2772;-49
2023/12/09 05:35:16;;;;;;;;;;;;;;;19.60;32.03;95477.16;10502317;28;2771;-52
2023/12/09 05:40:17;;;;;;;;;;;;;;;19.67;31.93;95482.13;10506650;28;2856;-49
2023/12/09 05:45:18;;;;;;;;;;;;;;;19.70;31.89;95482.34;10507405;28;4506;-48
2023/12/09 05:50:18;;;;;;;;;;;;;;;19.74;31.97;95493.91;10508294;28;2806;-52
2023/12/09 05:55:18;;;;;;;;;;;;;;;19.78;31.92;95489.69;10501208;28;2861;-50
2023/12/09 06:00:19;;;;;;;;;;;;;;;19.84;31.84;95495.69;10500252;28;2811;-49
2023/12/09 06:05:19;;;;;;;;;;;;;;;19.88;31.68;95504.59;10501182;28;2815;-46
2023/12/09 06:10:19;;;;;;;;;;;;;;;19.88;31.56;95502.75;10505826;28;2840;-51
2023/12/09 06:15:20;;;;;;;;;;;;;;;19.92;31.47;95510.88;10508732;28;3177;-50
2023/12/09 06:20:20;;;;;;;;;;;;;;;19.94;31.78;95511.38;10500955;28;2953;-52
2023/12/09 06:25:20;;;;;;;;;;;;;;;19.95;31.73;95508.47;10508786;28;3121;-52
2023/12/09 06:30:20;;;;;;;;;;;;;;;19.98;31.52;95507.16;10510811;28;2974;-49
2023/12/09 06:35:21;;;;;;;;;;;;;;;20.00;31.48;95503.19;10501722;28;2981;-47
2023/12/09 06:40:21;;;;;;;;;;;;;;;20.01;31.80;95501.34;10511033;28;2879;-52
2023/12/09 06:45:22;;;;;;;;;;;;;;;20.03;31.50;95501.84;10507162;28;2830;-47
2023/12/09 06:50:25;;;;;;;;;;;;;;;20.04;31.82;95500.78;10501601;28;2901;-52
2023/12/09 06:55:25;;;;;;;;;;;;;;;20.05;31.62;95511.03;10519032;28;3680;-52
2023/12/09 07:00:25;;;;;;;;;;;;;;;20.05;31.78;95502.38;10504032;28;2887;-51
2023/12/09 07:05:26;;;;;;;;;;;;;;;20.05;31.48;95505.00;10491013;28;2803;-49
2023/12/09 07:10:26;;;;;;;;;;;;;;;20.08;31.52;95509.69;10505304;28;2858;-50
2023/12/09 07:15:26;;;;;;;;;;;;;;;20.09;31.45;95517.31;10509962;28;2777;-52
2023/12/09 07:20:27;;;;;;;;;;;;;;;20.07;31.53;95506.28;10506199;28;2792;-52
2023/12/09 07:25:28;;;;;;;;;;;;;;;20.11;31.59;95503.91;10504540;28;2891;-50
2023/12/09 07:30:28;;;;;;;;;;;;;;;20.10;31.45;95499.69;10504811;28;3074;-48
2023/12/09 07:35:29;;;;;;;;;;;;;;;20.11;31.54;95504.66;10500871;28;2770;-52
2023/12/09 07:40:29;;;;;;;;;;;;;;;20.14;31.35;95484.91;10492382;28;2780;-51
2023/12/09 07:45:29;;;;;;;;;;;;;;;20.15;31.20;95468.06;10502423;28;4713;-52
2023/12/09 07:50:32;;;;;;;;;;;;;;;20.14;31.56;95477.81;10503622;28;2807;-50
2023/12/09 07:55:35;;;;;;;;;;;;;;;20.13;31.57;95480.72;10514281;28;2776;-50
2023/12/09 08:00:35;;;;;;;;;;;;;;;20.15;31.30;95470.69;10497014;28;2953;-49
2023/12/09 08:05:35;;;;;;;;;;;;;;;20.17;31.20;95471.22;10505518;28;2789;-51
2023/12/09 08:10:36;;;;;;;;;;;;;;;20.21;31.25;95485.41;10496039;28;2860;-51
2023/12/09 08:15:36;;;;;;;;;;;;;;;20.15;31.70;95483.88;10497054;28;2825;-47
2023/12/09 08:20:36;;;;;;;;;;;;;;;20.16;31.65;95482.78;10504706;28;2908;-51
2023/12/09 08:25:36;;;;;;;;;;;;;;;20.14;31.62;95469.91;10499987;28;2847;-50
2023/12/09 08:30:39;;;;;;;;;;;;;;;20.13;31.63;95468.31;10498278;28;2833;-53
2023/12/09 08:35:41;;;;;;;;;;;;;;;20.13;31.31;95467.56;10499163;28;2802;-48
2023/12/09 08:40:41;;;;;;;;;;;;;;;20.09;31.82;95469.19;10506078;28;2797;-50
2023/12/09 08:45:41;;;;;;;;;;;;;;;20.08;31.78;95459.69;10497891;28;4739;-51
2023/12/09 08:50:42;;;;;;;;;;;;;;;20.07;32.03;95471.31;10498263;28;2768;-48
2023/12/09 08:55:42;;;;;;;;;;;;;;;20.05;31.84;95474.19;10495561;28;2924;-51
2023/12/09 09:00:42;;;;;;;;;;;;;;;20.01;32.29;95470.53;10494769;28;2950;-51
2023/12/09 09:05:43;;;;;;;;;;;;;;;20.01;32.13;95477.66;10499818;28;2780;-51
2023/12/09 09:10:43;;;;;;;;;;;;;;;19.99;32.16;95474.53;10497219;28;2760;-51
2023/12/09 09:15:43;;;;;;;;;;;;;;;19.97;32.17;95468.75;10504648;28;2859;-49
2023/12/09 09:20:44;;;;;;;;;;;;;;;19.96;31.88;95462.72;10504266;28;2805;-50
2023/12/09 09:25:44;;;;;;;;;;;;;;;19.92;32.02;95459.06;10506552;28;2850;-50
2023/12/09 09:30:44;;;;;;;;;;;;;;;19.90;32.41;95444.59;10501259;28;2826;-47
2023/12/09 09:35:46;;;;;;;;;;;;;;;19.86;32.18;95444.38;10506314;28;2893;-47
2023/12/09 09:40:46;;;;;;;;;;;;;;;19.87;32.19;95427.53;10504536;28;2855;-51
2023/12/09 09:45:47;;;;;;;;;;;;;;;19.83;32.49;95439.66;10508783;28;4687;-47
2023/12/09 09:50:48;;;;;;;;;;;;;;;19.82;32.46;95413.63;10501790;28;2850;-51
2023/12/09 09:55:48;;;;;;;;;;;;;;;19.80;32.50;95392.88;10504694;28;2841;-53
2023/12/09 10:00:48;;;;;;;;;;;;;;;19.78;32.94;95386.31;10500920;28;2903;-49
2023/12/09 10:05:50;;;;;;;;;;;;;;;19.76;33.02;95376.09;10498818;28;2772;-48
2023/12/09 10:10:51;;;;;;;;;;;;;;;19.74;33.07;95364.28;10499658;28;2860;-52
2023/12/09 10:15:51;;;;;;;;;;;;;;;19.77;33.00;95355.81;10497078;28;2927;-49
2023/12/09 10:20:51;;;;;;;;;;;;;;;19.77;33.09;95334.78;10502169;28;2894;-52
2023/12/09 10:25:51;;;;;;;;;;;;;;;19.84;32.83;95301.84;10498320;28;2928;-49
2023/12/09 10:30:52;;;;;;;;;;;;;;;19.88;32.91;95305.47;10497553;28;3055;-50
2023/12/09 10:35:52;;;;;;;;;;;;;;;19.93;33.08;95307.25;10498512;28;2859;-53
2023/12/09 10:40:55;;;;;;;;;;;;;;;19.96;32.95;95294.34;10498156;28;2904;-47
2023/12/09 10:45:58;;;;;;;;;;;;;;;20.03;33.01;95294.00;10501804;28;5522;-54
2023/12/09 10:50:58;;;;;;;;;;;;;;;20.06;33.24;95286.34;10497304;28;2914;-51
2023/12/09 10:55:58;;;;;;;;;;;;;;;20.10;32.94;95276.81;10506014;28;2842;-52
2023/12/09 11:00:59;;;;;;;;;;;;;;;20.15;33.09;95270.72;10496643;28;2884;-46
2023/12/09 11:05:59;;;;;;;;;;;;;;;20.19;32.89;95269.09;10506399;28;2858;-52
2023/12/09 11:11:03;;;;;;;;;;;;;;;20.21;32.89;95256.44;10496974;28;3216;-50
2023/12/09 11:16:22;;;;;;;;;;;;;;;20.26;32.89;95249.25;10502708;28;2873;-51
2023/12/09 11:21:23;;;;;;;;;;;;;;;20.28;32.78;95241.09;10494347;28;2931;-49
2023/12/09 11:26:33;;;;;;;;;;;;;;;20.32;32.80;95243.94;10491703;28;2961;-52
2023/12/09 11:31:36;;;;;;;;;;;;;;;20.34;32.89;95245.22;10497107;28;2954;-50
2023/12/09 11:36:38;;;;;;;;;;;;;;;20.37;32.85;95234.13;10497540;28;2832;-52
2023/12/09 11:41:39;;;;;;;;;;;;;;;20.39;32.89;95224.09;10490286;28;2906;-48
2023/12/09 11:46:39;;;;;;;;;;;;;;;20.42;32.81;95215.63;10502641;28;4684;-51
2023/12/09 11:51:39;;;;;;;;;;;;;;;20.44;33.22;95210.88;10498644;28;2886;-52
2023/12/09 11:56:40;;;;;;;;;;;;;;;20.49;33.11;95189.72;10498318;28;3149;-51
2023/12/09 12:01:40;;;;;;;;;;;;;;;20.52;33.42;95189.16;10491666;28;2894;-51
2023/12/09 12:06:40;;;;;;;;;;;;;;;20.56;33.19;95174.34;10499815;28;3007;-51
2023/12/09 12:11:41;;;;;;;;;;;;;;;20.56;33.25;95157.78;10483004;28;2786;-48
2023/12/09 12:16:41;;;;;;;;;;;;;;;20.59;33.54;95149.28;10499410;28;2929;-50
2023/12/09 12:21:41;;;;;;;;;;;;;;;20.60;34.21;95138.47;10493212;28;2863;-47
2023/12/09 12:26:41;;;;;;;;;;;;;;;20.67;34.66;95128.34;10498902;28;2800;-50
2023/12/09 12:31:42;;;;;;;;;;;;;;;20.68;35.11;95103.59;10489357;28;2908;-51
2023/12/09 12:36:42;;;;;;;;;;;;;;;20.74;35.46;95099.78;10493607;28;2881;-51
2023/12/09 12:41:42;;;;;;;;;;;;;;;20.77;35.25;95080.00;10492742;28;2922;-52
2023/12/09 12:46:43;;;;;;;;;;;;;;;20.73;34.70;95063.97;10494299;28;4741;-53
2023/12/09 12:51:43;;;;;;;;;;;;;;;20.75;35.02;95059.19;10495037;28;2994;-51
2023/12/09 12:56:43;;;;;;;;;;;;;;;20.77;35.16;95057.06;10497477;28;2801;-52
2023/12/09 13:01:44;;;;;;;;;;;;;;;20.80;34.67;95050.44;10499523;28;2909;-52
2023/12/09 13:06:44;;;;;;;;;;;;;;;20.79;34.64;95031.19;10496815;28;2815;-52
2023/12/09 13:11:44;;;;;;;;;;;;;;;20.79;34.94;95015.41;10502071;28;3177;-52
2023/12/09 13:16:45;;;;;;;;;;;;;;;20.80;34.63;94997.75;10499064;28;2842;-50
2023/12/09 13:21:45;;;;;;;;;;;;;;;20.79;34.60;94977.75;10502428;28;2955;-51
2023/12/09 13:26:45;;;;;;;;;;;;;;;20.79;34.99;94968.00;10498623;28;3130;-52
2023/12/09 13:31:46;;;;;;;;;;;;;;;20.79;34.67;94962.72;10490790;28;2829;-48
2023/12/09 13:36:46;;;;;;;;;;;;;;;20.77;34.55;94979.91;10500192;28;2807;-49
2023/12/09 13:41:46;;;;;;;;;;;;;;;20.74;34.82;94970.75;10482041;28;3162;-51
2023/12/09 13:46:47;;;;;;;;;;;;;;;20.73;34.67;94953.34;10494943;28;4579;-53
2023/12/09 13:51:47;;;;;;;;;;;;;;;20.74;34.67;94919.91;10492594;28;2826;-53
2023/12/09 13:56:47;;;;;;;;;;;;;;;20.70;34.87;94914.47;10497417;28;2848;-52
2023/12/09 14:01:49;;;;;;;;;;;;;;;20.69;34.88;94899.72;10496274;28;2940;-52
2023/12/09 14:06:49;;;;;;;;;;;;;;;20.73;35.49;94895.41;10524094;27;2827;-50
2023/12/09 14:11:50;;;;;;;;;;;;;;;20.69;35.19;94902.34;10547109;27;2381;-51
2023/12/09 14:16:50;;;;;;;;;;;;;;;20.68;34.70;94885.00;10515273;28;2369;-50
2023/12/09 14:21:50;;;;;;;;;;;;;;;20.69;34.79;94875.25;10516745;28;1549;-51
2023/12/09 14:26:51;;;;;;;;;;;;;;;20.71;34.96;94876.50;10521659;28;2151;-52
2023/12/09 14:31:51;;;;;;;;;;;;;;;20.72;35.18;94879.91;10523363;28;2353;-54
2023/12/09 14:36:51;;;;;;;;;;;;;;;20.74;35.25;94875.13;10517485;28;1416;-52
2023/12/09 14:41:52;;;;;;;;;;;;;;;20.73;35.49;94881.50;10504275;28;1552;-50
2023/12/09 14:46:52;;;;;;;;;;;;;;;20.74;35.57;94870.66;10527898;28;4762;-48
2023/12/09 14:51:52;;;;;;;;;;;;;;;20.74;35.98;94870.66;10523999;28;1975;-53
2023/12/09 14:56:52;;;;;;;;;;;;;;;20.75;35.63;94866.19;10522850;28;1536;-48
2023/12/09 15:01:53;;;;;;;;;;;;;;;20.77;35.70;94867.41;10520056;28;1599;-52
2023/12/09 15:06:54;;;;;;;;;;;;;;;20.74;35.85;94854.06;10515888;28;1488;-54
2023/12/09 15:11:54;;;;;;;;;;;;;;;20.73;36.18;94842.75;10513799;28;1922;-52
2023/12/09 15:16:55;;;;;;;;;;;;;;;20.75;35.87;94818.78;10518688;28;1441;-50
2023/12/09 15:21:55;;;;;;;;;;;;;;;20.76;35.80;94799.25;10524574;28;1483;-52
2023/12/09 15:26:55;;;;;;;;;;;;;;;20.79;36.00;94773.09;10515349;28;1559;-54
2023/12/09 15:31:55;;;;;;;;;;;;;;;20.76;35.85;94752.63;10508761;28;1913;-53
2023/12/09 15:36:56;;;;;;;;;;;;;;;20.75;35.80;94745.03;10515251;28;1521;-52
2023/12/09 15:41:56;;;;;;;;;;;;;;;20.76;35.71;94721.03;10522072;28;1547;-55
2023/12/09 15:46:56;;;;;;;;;;;;;;;20.79;35.69;94733.56;10519220;28;4629;-53
2023/12/09 15:51:56;;;;;;;;;;;;;;;20.81;35.56;94728.03;10496155;28;2804;-54
2023/12/09 15:56:57;;;;;;;;;;;;;;;20.78;35.65;94723.34;10498917;28;2768;-55
2023/12/09 16:01:57;;;;;;;;;;;;;;;20.80;35.68;94703.53;10496157;28;2836;-51
2023/12/09 16:07:00;;;;;;;;;;;;;;;20.80;35.58;94705.38;10496076;28;3245;-52
2023/12/09 16:12:00;;;;;;;;;;;;;;;20.77;35.63;94683.06;10520422;27;3249;-53
2023/12/09 16:17:01;;;;;;;;;;;;;;;20.74;35.81;94696.06;10496367;28;2881;-54
2023/12/09 16:22:04;;;;;;;;;;;;;;;20.78;35.93;94686.47;10494827;28;2952;-53
2023/12/09 16:27:05;;;;;;;;;;;;;;;20.81;35.33;94670.09;10524954;27;2853;-53
2023/12/09 16:32:05;;;;;;;;;;;;;;;20.83;35.81;94660.03;10498511;28;2915;-54
2023/12/09 16:37:05;;;;;;;;;;;;;;;20.90;35.85;94649.81;10494835;28;2903;-53
2023/12/09 16:42:05;;;;;;;;;;;;;;;20.95;36.43;94626.00;10496605;28;2936;-51
2023/12/09 16:47:06;;;;;;;;;;;;;;;20.99;36.23;94597.97;10501956;28;3064;-53
2023/12/09 16:52:06;;;;;;;;;;;;;;;21.05;35.91;94600.22;10522457;28;2807;-48
2023/12/09 16:57:06;;;;;;;;;;;;;;;21.05;36.05;94581.75;10503749;28;2999;-49
2023/12/09 17:02:07;;;;;;;;;;;;;;;21.13;35.98;94579.44;10501394;28;2809;-54
2023/12/09 17:07:07;;;;;;;;;;;;;;;21.21;36.29;94568.16;10500626;28;2864;-53
2023/12/09 17:12:07;;;;;;;;;;;;;;;21.24;35.57;94552.53;10489981;28;2841;-48
2023/12/09 17:17:10;;;;;;;;;;;;;;;21.28;35.36;94537.66;10492994;28;2856;-53
2023/12/09 17:22:10;;;;;;;;;;;;;;;21.35;36.22;94526.66;10498432;28;3114;-52
2023/12/09 17:27:11;;;;;;;;;;;;;;;21.33;35.73;94516.41;10490678;28;2906;-54
2023/12/09 17:32:12;;;;;;;;;;;;;;;21.35;35.46;94498.44;10497204;28;3242;-56
2023/12/09 17:37:13;;;;;;;;;;;;;;;21.32;34.88;94485.09;10511255;28;3212;-52
2023/12/09 17:42:13;;;;;;;;;;;;;;;21.37;34.75;94483.09;10530115;28;2807;-53
2023/12/09 17:47:14;;;;;;;;;;;;;;;21.30;34.88;94479.38;10512909;28;4564;-54
2023/12/09 17:52:14;;;;;;;;;;;;;;;21.31;35.24;94481.69;10508170;28;2810;-54
2023/12/09 17:57:14;;;;;;;;;;;;;;;21.33;35.23;94436.59;10505326;28;2786;-54
2023/12/09 18:02:15;;;;;;;;;;;;;;;21.34;35.17;94409.13;10510860;28;2881;-55
2023/12/09 18:07:15;;;;;;;;;;;;;;;21.34;34.86;94394.09;10504393;28;2920;-55
2023/12/09 18:12:15;;;;;;;;;;;;;;;21.34;34.55;94394.09;10506436;28;2833;-55
2023/12/09 18:17:16;;;;;;;;;;;;;;;21.35;34.81;94379.81;10507747;28;2839;-55
2023/12/09 18:22:16;;;;;;;;;;;;;;;21.38;34.57;94394.25;10510697;28;2851;-52
2023/12/09 18:27:16;;;;;;;;;;;;;;;21.36;35.27;94391.13;10510651;28;2872;-55
2023/12/09 18:32:17;;;;;;;;;;;;;;;21.38;34.61;94368.66;10511869;28;2804;-52
2023/12/09 18:37:18;;;;;;;;;;;;;;;21.40;34.67;94365.72;10522389;28;2191;-53
2023/12/09 18:42:18;;;;;;;;;;;;;;;21.42;34.38;94374.88;10520335;28;3114;-53
2023/12/09 18:47:18;;;;;;;;;;;;;;;21.42;34.67;94363.53;10521632;28;4710;-54
2023/12/09 18:52:19;;;;;;;;;;;;;;;21.43;34.82;94333.47;10524263;28;2553;-52
2023/12/09 18:57:20;;;;;;;;;;;;;;;21.44;34.97;94303.38;10516173;28;2863;-56
2023/12/09 19:02:20;;;;;;;;;;;;;;;21.45;34.68;94310.94;10517202;28;2025;-52
2023/12/09 19:07:20;;;;;;;;;;;;;;;21.47;34.44;94314.09;10522003;28;2036;-54
2023/12/09 19:12:20;;;;;;;;;;;;;;;21.46;34.97;94295.91;10516371;28;2460;-54
2023/12/09 19:17:21;;;;;;;;;;;;;;;21.49;34.41;94253.91;10514796;28;1844;-55
2023/12/09 19:22:21;;;;;;;;;;;;;;;21.50;34.52;94217.75;10510925;28;1446;-55
2023/12/09 19:27:21;;;;;;;;;;;;;;;21.50;34.40;94205.34;10519782;28;1553;-53
2023/12/09 19:32:21;;;;;;;;;;;;;;;21.51;34.08;94187.66;10511605;28;1993;-53
2023/12/09 19:37:22;;;;;;;;;;;;;;;21.60;33.82;94178.63;10507357;28;1639;-54
2023/12/09 19:42:22;;;;;;;;;;;;;;;21.59;33.83;94163.91;10517778;28;1405;-56
2023/12/09 19:47:22;;;;;;;;;;;;;;;21.57;35.19;94149.50;10515463;28;4628;-54
2023/12/09 19:52:23;;;;;;;;;;;;;;;21.60;34.40;94154.13;10511985;28;1914;-53
2023/12/09 19:57:23;;;;;;;;;;;;;;;21.62;34.90;94154.56;10515107;28;1552;-51
2023/12/09 20:02:23;;;;;;;;;;;;;;;21.66;35.37;94143.06;10517754;28;1453;-47
2023/12/09 20:07:24;;;;;;;;;;;;;;;21.68;35.39;94140.13;10514836;28;2367;-50
2023/12/09 20:12:24;;;;;;;;;;;;;;;21.71;35.39;94136.84;10508368;28;1965;-49
2023/12/09 20:17:24;;;;;;;;;;;;;;;21.73;34.45;94134.66;10514955;28;1565;-50
2023/12/09 20:22:24;;;;;;;;;;;;;;;21.75;34.90;94135.13;10519509;28;1634;-51
2023/12/09 20:27:25;;;;;;;;;;;;;;;21.76;34.79;94140.06;10518448;28;2426;-48
2023/12/09 20:32:25;;;;;;;;;;;;;;;21.79;34.66;94136.03;10514651;28;1967;-48
2023/12/09 20:37:25;;;;;;;;;;;;;;;21.80;35.65;94150.78;10517501;27;1804;-46
2023/12/09 20:42:26;;;;;;;;;;;;;;;21.79;35.30;94154.50;10507854;28;1456;-47
2023/12/09 20:47:26;;;;;;;;;;;;;;;21.76;35.67;94157.78;10517861;28;1450;-50
2023/12/09 20:52:26;;;;;;;;;;;;;;;21.72;35.69;94156.88;10522750;28;2341;-51
2023/12/09 20:57:26;;;;;;;;;;;;;;;21.70;35.80;94167.72;10513999;28;1661;-52
2023/12/09 21:02:27;;;;;;;;;;;;;;;21.66;36.42;94142.28;10515347;28;1476;-46
2023/12/09 21:07:27;;;;;;;;;;;;;;;21.64;35.54;94150.53;10519773;28;1684;-53
2023/12/09 21:12:27;;;;;;;;;;;;;;;21.59;35.32;94155.22;10525693;28;1906;-49
2023/12/09 21:17:27;;;;;;;;;;;;;;;21.56;35.52;94155.84;10525176;28;1436;-50
2023/12/09 21:22:28;;;;;;;;;;;;;;;21.51;35.21;94183.19;10521799;28;1411;-50
2023/12/09 21:27:28;;;;;;;;;;;;;;;21.49;35.47;94174.03;10524477;28;2386;-50
2023/12/09 21:32:28;;;;;;;;;;;;;;;21.44;35.43;94182.09;10520463;28;1978;-49
2023/12/09 21:37:28;;;;;;;;;;;;;;;21.41;35.61;94194.03;10522990;28;1455;-50
2023/12/09 21:42:29;;;;;;;;;;;;;;;21.38;35.57;94183.38;10522497;28;1465;-52
2023/12/09 21:47:30;;;;;;;;;;;;;;;21.34;35.69;94174.56;10521967;28;4617;-49
2023/12/09 21:52:30;;;;;;;;;;;;;;;21.30;35.73;94177.03;10523512;28;1974;-50
2023/12/09 21:57:31;;;;;;;;;;;;;;;21.27;35.75;94182.19;10529822;28;1463;-50
2023/12/09 22:02:31;;;;;;;;;;;;;;;21.23;35.71;94203.09;10520638;28;1428;-52
2023/12/09 22:07:32;;;;;;;;;;;;;;;21.21;35.66;94204.50;10522737;28;1626;-52
2023/12/09 22:12:33;;;;;;;;;;;;;;;21.16;35.72;94215.22;10522259;28;1917;-50
2023/12/09 22:17:34;;;;;;;;;;;;;;;21.13;35.46;94221.09;10523500;28;2414;-47
2023/12/09 22:22:34;;;;;;;;;;;;;;;21.13;35.48;94231.63;10531507;28;1422;-48
2023/12/09 22:27:34;;;;;;;;;;;;;;;21.08;35.12;94231.81;10527766;27;1493;-49
2023/12/09 22:32:35;;;;;;;;;;;;;;;21.04;35.28;94250.13;10523706;28;1913;-53
2023/12/09 22:37:39;;;;;;;;;;;;;;;21.00;35.23;94251.78;10516630;28;1447;-49
2023/12/09 22:42:39;;;;;;;;;;;;;;;20.96;35.13;94264.81;10521516;28;1710;-53
2023/12/09 22:47:40;;;;;;;;;;;;;;;20.91;35.14;94286.03;10521644;28;4617;-52
2023/12/09 22:52:40;;;;;;;;;;;;;;;20.86;35.40;94307.25;10524680;28;1906;-52
2023/12/09 22:57:40;;;;;;;;;;;;;;;20.80;35.12;94313.75;10519881;28;1514;-52
2023/12/09 23:02:40;;;;;;;;;;;;;;;20.77;34.50;94330.16;10515832;28;1729;-49
2023/12/09 23:07:41;;;;;;;;;;;;;;;20.72;34.65;94356.66;10520336;28;1418;-50
2023/12/09 23:12:41;;;;;;;;;;;;;;;20.67;35.31;94362.06;10497479;28;2899;-51
2023/12/09 23:17:41;;;;;;;;;;;;;;;20.63;35.40;94369.03;10500637;28;3167;-48
2023/12/09 23:22:42;;;;;;;;;;;;;;;20.59;34.41;94362.81;10497379;28;2867;-50
2023/12/09 23:27:42;;;;;;;;;;;;;;;20.54;35.04;94376.13;10493690;28;2805;-50
2023/12/09 23:32:42;;;;;;;;;;;;;;;20.51;35.15;94378.59;10501073;28;2895;-52
2023/12/09 23:37:43;;;;;;;;;;;;;;;20.46;35.07;94384.78;10498090;28;2831;-50
2023/12/09 23:42:43;;;;;;;;;;;;;;;20.42;34.99;94372.53;10504256;28;2825;-53
2023/12/09 23:47:43;;;;;;;;;;;;;;;20.37;35.43;94385.81;10500262;28;4731;-49
2023/12/09 23:52:43;;;;;;;;;;;;;;;20.31;35.08;94382.56;10493949;28;2921;-48
2023/12/09 23:57:44;;;;;;;;;;;;;;;20.24;35.62;94387.47;10501195;28;2906;-50
